sensor_id;sensor_type;location;lat;lon;timestamp;P1;durP1;ratioP1;P2;durP2;ratioP2
20181;SDS011;10250;50.756;6.172;2022-12-07T00:00:38;15.93;;;5.20;;
20181;SDS011;10250;50.756;6.172;2022-12-07T00:02:39;18.63;;;6.80;;
20181;SDS011;10250;50.756;6.172;2022-12-07T00:04:39;18.27;;;6.07;;
20181;SDS011;10250;50.756;6.172;2022-12-07T00:06:44;18.03;;;5.93;;
20181;SDS011;10250;50.756;6.172;2022-12-07T00:08:46;15.80;;;5.03;;
20181;SDS011;10250;50.756;6.172;2022-12-07T00:10:48;17.67;;;5.13;;
20181;SDS011;10250;50.756;6.172;2022-12-07T00:12:48;16.30;;;5.30;;
20181;SDS011;10250;50.756;6.172;2022-12-07T00:14:50;21.77;;;7.10;;
20181;SDS011;10250;50.756;6.172;2022-12-07T00:16:51;16.17;;;5.40;;
20181;SDS011;10250;50.756;6.172;2022-12-07T00:18:52;17.03;;;5.63;;
20181;SDS011;10250;50.756;6.172;2022-12-07T00:20:58;14.57;;;4.40;;
20181;SDS011;10250;50.756;6.172;2022-12-07T00:22:59;19.90;;;6.87;;
20181;SDS011;10250;50.756;6.172;2022-12-07T00:25:00;16.73;;;5.50;;
20181;SDS011;10250;50.756;6.172;2022-12-07T00:27:01;16.80;;;5.50;;
20181;SDS011;10250;50.756;6.172;2022-12-07T00:29:06;20.57;;;6.23;;
20181;SDS011;10250;50.756;6.172;2022-12-07T00:31:09;21.80;;;5.77;;
20181;SDS011;10250;50.756;6.172;2022-12-07T00:33:10;16.67;;;6.80;;
20181;SDS011;10250;50.756;6.172;2022-12-07T00:35:11;16.13;;;5.67;;
20181;SDS011;10250;50.756;6.172;2022-12-07T00:37:12;20.40;;;6.30;;
20181;SDS011;10250;50.756;6.172;2022-12-07T00:39:13;14.97;;;5.17;;
20181;SDS011;10250;50.756;6.172;2022-12-07T00:41:18;19.17;;;6.53;;
20181;SDS011;10250;50.756;6.172;2022-12-07T00:43:19;21.43;;;6.33;;
20181;SDS011;10250;50.756;6.172;2022-12-07T00:45:22;21.70;;;5.70;;
20181;SDS011;10250;50.756;6.172;2022-12-07T00:47:23;18.60;;;5.60;;
20181;SDS011;10250;50.756;6.172;2022-12-07T00:49:24;16.43;;;5.40;;
20181;SDS011;10250;50.756;6.172;2022-12-07T00:51:25;20.30;;;6.07;;
20181;SDS011;10250;50.756;6.172;2022-12-07T00:53:26;15.73;;;5.27;;
20181;SDS011;10250;50.756;6.172;2022-12-07T00:55:27;17.13;;;5.57;;
20181;SDS011;10250;50.756;6.172;2022-12-07T00:57:30;18.57;;;7.03;;
20181;SDS011;10250;50.756;6.172;2022-12-07T00:59:31;16.77;;;6.27;;
20181;SDS011;10250;50.756;6.172;2022-12-07T01:01:33;16.33;;;6.40;;
20181;SDS011;10250;50.756;6.172;2022-12-07T01:03:34;15.53;;;5.33;;
20181;SDS011;10250;50.756;6.172;2022-12-07T01:05:35;19.37;;;6.07;;
20181;SDS011;10250;50.756;6.172;2022-12-07T01:07:37;16.90;;;5.83;;
20181;SDS011;10250;50.756;6.172;2022-12-07T01:09:38;18.40;;;5.80;;
20181;SDS011;10250;50.756;6.172;2022-12-07T01:11:39;19.10;;;6.10;;
20181;SDS011;10250;50.756;6.172;2022-12-07T01:13:40;18.10;;;6.47;;
20181;SDS011;10250;50.756;6.172;2022-12-07T01:15:42;14.23;;;4.87;;
20181;SDS011;10250;50.756;6.172;2022-12-07T01:17:43;17.87;;;6.50;;
20181;SDS011;10250;50.756;6.172;2022-12-07T01:19:44;16.57;;;5.93;;
20181;SDS011;10250;50.756;6.172;2022-12-07T01:21:45;16.57;;;5.73;;
20181;SDS011;10250;50.756;6.172;2022-12-07T01:23:46;16.90;;;5.77;;
20181;SDS011;10250;50.756;6.172;2022-12-07T01:25:53;14.53;;;4.90;;
20181;SDS011;10250;50.756;6.172;2022-12-07T01:27:54;16.27;;;5.37;;
20181;SDS011;10250;50.756;6.172;2022-12-07T01:29:55;14.00;;;4.40;;
20181;SDS011;10250;50.756;6.172;2022-12-07T01:31:56;16.97;;;5.80;;
20181;SDS011;10250;50.756;6.172;2022-12-07T01:33:57;16.37;;;5.43;;
20181;SDS011;10250;50.756;6.172;2022-12-07T01:36:08;18.63;;;4.70;;
20181;SDS011;10250;50.756;6.172;2022-12-07T01:38:09;15.60;;;5.20;;
20181;SDS011;10250;50.756;6.172;2022-12-07T01:40:10;15.27;;;4.83;;
20181;SDS011;10250;50.756;6.172;2022-12-07T01:42:11;15.23;;;4.80;;
20181;SDS011;10250;50.756;6.172;2022-12-07T01:46:16;16.10;;;5.17;;
20181;SDS011;10250;50.756;6.172;2022-12-07T01:48:19;15.50;;;5.03;;
20181;SDS011;10250;50.756;6.172;2022-12-07T01:50:21;13.23;;;4.60;;
20181;SDS011;10250;50.756;6.172;2022-12-07T01:54:25;16.13;;;4.77;;
20181;SDS011;10250;50.756;6.172;2022-12-07T01:56:27;15.03;;;5.47;;
20181;SDS011;10250;50.756;6.172;2022-12-07T01:58:29;17.13;;;5.73;;
20181;SDS011;10250;50.756;6.172;2022-12-07T02:00:30;15.60;;;4.97;;
20181;SDS011;10250;50.756;6.172;2022-12-07T02:02:36;15.80;;;5.20;;
20181;SDS011;10250;50.756;6.172;2022-12-07T02:04:38;16.53;;;5.73;;
20181;SDS011;10250;50.756;6.172;2022-12-07T02:06:39;17.93;;;5.73;;
20181;SDS011;10250;50.756;6.172;2022-12-07T02:08:42;17.37;;;5.93;;
20181;SDS011;10250;50.756;6.172;2022-12-07T02:10:43;18.73;;;6.30;;
20181;SDS011;10250;50.756;6.172;2022-12-07T02:12:44;18.40;;;5.87;;
20181;SDS011;10250;50.756;6.172;2022-12-07T02:14:47;22.30;;;7.77;;
20181;SDS011;10250;50.756;6.172;2022-12-07T02:28:17;21.03;;;6.07;;
20181;SDS011;10250;50.756;6.172;2022-12-07T02:30:21;19.80;;;6.37;;
20181;SDS011;10250;50.756;6.172;2022-12-07T02:35:07;19.63;;;6.53;;
20181;SDS011;10250;50.756;6.172;2022-12-07T02:36:50;19.70;;;6.30;;
20181;SDS011;10250;50.756;6.172;2022-12-07T02:41:07;19.37;;;6.93;;
20181;SDS011;10250;50.756;6.172;2022-12-07T02:43:17;17.00;;;6.27;;
20181;SDS011;10250;50.756;6.172;2022-12-07T02:45:21;20.07;;;6.77;;
20181;SDS011;10250;50.756;6.172;2022-12-07T02:47:22;18.90;;;6.20;;
20181;SDS011;10250;50.756;6.172;2022-12-07T02:49:25;18.20;;;6.53;;
20181;SDS011;10250;50.756;6.172;2022-12-07T02:51:31;19.87;;;6.67;;
20181;SDS011;10250;50.756;6.172;2022-12-07T02:53:33;18.57;;;7.13;;
20181;SDS011;10250;50.756;6.172;2022-12-07T02:55:37;22.67;;;7.10;;
20181;SDS011;10250;50.756;6.172;2022-12-07T03:00:00;22.90;;;7.47;;
20181;SDS011;10250;50.756;6.172;2022-12-07T03:02:17;17.70;;;6.40;;
20181;SDS011;10250;50.756;6.172;2022-12-07T03:06:28;18.83;;;6.50;;
20181;SDS011;10250;50.756;6.172;2022-12-07T03:10:36;15.77;;;5.23;;
20181;SDS011;10250;50.756;6.172;2022-12-07T03:12:49;18.90;;;6.00;;
20181;SDS011;10250;50.756;6.172;2022-12-07T03:15:03;19.97;;;7.00;;
20181;SDS011;10250;50.756;6.172;2022-12-07T03:17:08;17.97;;;6.07;;
20181;SDS011;10250;50.756;6.172;2022-12-07T03:19:12;21.63;;;6.23;;
20181;SDS011;10250;50.756;6.172;2022-12-07T03:21:15;19.73;;;6.30;;
20181;SDS011;10250;50.756;6.172;2022-12-07T03:23:18;20.80;;;6.40;;
20181;SDS011;10250;50.756;6.172;2022-12-07T03:25:19;18.13;;;6.50;;
20181;SDS011;10250;50.756;6.172;2022-12-07T03:27:31;19.03;;;6.73;;
20181;SDS011;10250;50.756;6.172;2022-12-07T03:29:44;17.93;;;6.30;;
20181;SDS011;10250;50.756;6.172;2022-12-07T03:31:47;17.53;;;5.83;;
20181;SDS011;10250;50.756;6.172;2022-12-07T03:33:58;16.80;;;5.50;;
20181;SDS011;10250;50.756;6.172;2022-12-07T03:36:08;20.47;;;6.67;;
20181;SDS011;10250;50.756;6.172;2022-12-07T03:38:16;19.63;;;5.57;;
20181;SDS011;10250;50.756;6.172;2022-12-07T03:40:21;18.77;;;6.27;;
20181;SDS011;10250;50.756;6.172;2022-12-07T03:42:23;17.20;;;6.23;;
20181;SDS011;10250;50.756;6.172;2022-12-07T03:44:24;19.57;;;6.73;;
20181;SDS011;10250;50.756;6.172;2022-12-07T03:48:37;16.10;;;5.60;;
20181;SDS011;10250;50.756;6.172;2022-12-07T03:50:43;18.00;;;5.70;;
20181;SDS011;10250;50.756;6.172;2022-12-07T03:52:47;19.23;;;5.50;;
20181;SDS011;10250;50.756;6.172;2022-12-07T03:54:56;19.53;;;5.67;;
20181;SDS011;10250;50.756;6.172;2022-12-07T03:56:58;16.73;;;4.97;;
20181;SDS011;10250;50.756;6.172;2022-12-07T03:58:59;16.97;;;5.20;;
20181;SDS011;10250;50.756;6.172;2022-12-07T04:01:00;15.87;;;4.80;;
20181;SDS011;10250;50.756;6.172;2022-12-07T04:03:01;18.57;;;5.77;;
20181;SDS011;10250;50.756;6.172;2022-12-07T04:05:02;18.70;;;6.17;;
20181;SDS011;10250;50.756;6.172;2022-12-07T04:07:03;16.00;;;5.67;;
20181;SDS011;10250;50.756;6.172;2022-12-07T04:09:04;19.73;;;5.83;;
20181;SDS011;10250;50.756;6.172;2022-12-07T04:11:05;15.50;;;5.60;;
20181;SDS011;10250;50.756;6.172;2022-12-07T04:13:06;16.47;;;5.80;;
20181;SDS011;10250;50.756;6.172;2022-12-07T04:15:07;17.00;;;5.87;;
20181;SDS011;10250;50.756;6.172;2022-12-07T04:17:08;19.37;;;6.60;;
20181;SDS011;10250;50.756;6.172;2022-12-07T04:19:09;19.47;;;6.27;;
20181;SDS011;10250;50.756;6.172;2022-12-07T04:21:10;18.10;;;6.40;;
20181;SDS011;10250;50.756;6.172;2022-12-07T04:23:11;22.40;;;7.40;;
20181;SDS011;10250;50.756;6.172;2022-12-07T04:25:12;15.63;;;5.13;;
20181;SDS011;10250;50.756;6.172;2022-12-07T04:27:13;17.83;;;6.60;;
20181;SDS011;10250;50.756;6.172;2022-12-07T04:29:14;16.50;;;6.10;;
20181;SDS011;10250;50.756;6.172;2022-12-07T04:31:16;18.57;;;5.83;;
20181;SDS011;10250;50.756;6.172;2022-12-07T04:33:17;19.07;;;6.70;;
20181;SDS011;10250;50.756;6.172;2022-12-07T04:35:17;18.77;;;6.20;;
20181;SDS011;10250;50.756;6.172;2022-12-07T04:37:18;15.93;;;5.30;;
20181;SDS011;10250;50.756;6.172;2022-12-07T04:39:21;20.43;;;5.83;;
20181;SDS011;10250;50.756;6.172;2022-12-07T04:41:25;17.50;;;6.43;;
20181;SDS011;10250;50.756;6.172;2022-12-07T04:43:29;17.03;;;5.50;;
20181;SDS011;10250;50.756;6.172;2022-12-07T04:45:30;17.73;;;5.57;;
20181;SDS011;10250;50.756;6.172;2022-12-07T04:47:31;19.47;;;6.07;;
20181;SDS011;10250;50.756;6.172;2022-12-07T04:49:32;20.17;;;5.70;;
20181;SDS011;10250;50.756;6.172;2022-12-07T04:51:33;18.80;;;6.10;;
20181;SDS011;10250;50.756;6.172;2022-12-07T04:53:34;18.87;;;5.50;;
20181;SDS011;10250;50.756;6.172;2022-12-07T04:55:35;15.77;;;5.50;;
20181;SDS011;10250;50.756;6.172;2022-12-07T04:57:36;17.00;;;5.43;;
20181;SDS011;10250;50.756;6.172;2022-12-07T04:59:37;17.30;;;6.37;;
20181;SDS011;10250;50.756;6.172;2022-12-07T05:01:38;20.20;;;6.53;;
20181;SDS011;10250;50.756;6.172;2022-12-07T05:03:39;17.07;;;5.53;;
20181;SDS011;10250;50.756;6.172;2022-12-07T05:05:40;17.47;;;5.53;;
20181;SDS011;10250;50.756;6.172;2022-12-07T05:07:41;17.33;;;6.00;;
20181;SDS011;10250;50.756;6.172;2022-12-07T05:09:42;18.10;;;5.57;;
20181;SDS011;10250;50.756;6.172;2022-12-07T05:11:43;17.07;;;5.87;;
20181;SDS011;10250;50.756;6.172;2022-12-07T05:13:44;18.20;;;5.83;;
20181;SDS011;10250;50.756;6.172;2022-12-07T05:15:48;15.53;;;5.43;;
20181;SDS011;10250;50.756;6.172;2022-12-07T05:17:49;16.20;;;5.37;;
20181;SDS011;10250;50.756;6.172;2022-12-07T05:19:52;20.67;;;6.20;;
20181;SDS011;10250;50.756;6.172;2022-12-07T05:21:53;17.17;;;5.40;;
20181;SDS011;10250;50.756;6.172;2022-12-07T05:23:54;15.40;;;4.57;;
20181;SDS011;10250;50.756;6.172;2022-12-07T05:25:55;17.53;;;5.77;;
20181;SDS011;10250;50.756;6.172;2022-12-07T05:27:56;17.80;;;5.83;;
20181;SDS011;10250;50.756;6.172;2022-12-07T05:29:57;15.47;;;5.10;;
20181;SDS011;10250;50.756;6.172;2022-12-07T05:31:58;17.40;;;5.63;;
20181;SDS011;10250;50.756;6.172;2022-12-07T05:33:59;16.77;;;5.73;;
20181;SDS011;10250;50.756;6.172;2022-12-07T05:36:00;15.63;;;5.57;;
20181;SDS011;10250;50.756;6.172;2022-12-07T05:38:05;19.50;;;5.93;;
20181;SDS011;10250;50.756;6.172;2022-12-07T05:40:06;18.90;;;6.30;;
20181;SDS011;10250;50.756;6.172;2022-12-07T05:42:07;18.13;;;5.80;;
20181;SDS011;10250;50.756;6.172;2022-12-07T05:44:12;16.93;;;5.60;;
20181;SDS011;10250;50.756;6.172;2022-12-07T05:46:13;19.33;;;5.80;;
20181;SDS011;10250;50.756;6.172;2022-12-07T05:48:14;18.83;;;5.90;;
20181;SDS011;10250;50.756;6.172;2022-12-07T05:50:15;17.60;;;5.30;;
20181;SDS011;10250;50.756;6.172;2022-12-07T05:52:16;15.47;;;4.70;;
20181;SDS011;10250;50.756;6.172;2022-12-07T05:54:17;18.23;;;5.63;;
20181;SDS011;10250;50.756;6.172;2022-12-07T05:56:18;17.83;;;4.90;;
20181;SDS011;10250;50.756;6.172;2022-12-07T05:58:19;18.13;;;5.20;;
20181;SDS011;10250;50.756;6.172;2022-12-07T06:00:38;14.23;;;4.77;;
20181;SDS011;10250;50.756;6.172;2022-12-07T06:02:39;13.63;;;4.53;;
20181;SDS011;10250;50.756;6.172;2022-12-07T06:04:41;18.00;;;5.20;;
20181;SDS011;10250;50.756;6.172;2022-12-07T06:06:42;13.70;;;3.63;;
20181;SDS011;10250;50.756;6.172;2022-12-07T06:08:43;15.53;;;5.17;;
20181;SDS011;10250;50.756;6.172;2022-12-07T06:10:46;17.00;;;4.47;;
20181;SDS011;10250;50.756;6.172;2022-12-07T06:13:07;16.57;;;4.43;;
20181;SDS011;10250;50.756;6.172;2022-12-07T06:15:09;15.53;;;4.97;;
20181;SDS011;10250;50.756;6.172;2022-12-07T06:17:13;16.97;;;4.10;;
20181;SDS011;10250;50.756;6.172;2022-12-07T06:19:14;14.27;;;4.47;;
20181;SDS011;10250;50.756;6.172;2022-12-07T06:21:15;15.97;;;4.53;;
20181;SDS011;10250;50.756;6.172;2022-12-07T06:23:16;17.57;;;4.73;;
20181;SDS011;10250;50.756;6.172;2022-12-07T06:25:17;11.47;;;3.37;;
20181;SDS011;10250;50.756;6.172;2022-12-07T06:27:17;16.03;;;4.53;;
20181;SDS011;10250;50.756;6.172;2022-12-07T06:29:18;15.37;;;4.63;;
20181;SDS011;10250;50.756;6.172;2022-12-07T06:31:20;15.80;;;4.23;;
20181;SDS011;10250;50.756;6.172;2022-12-07T06:33:21;13.23;;;3.80;;
20181;SDS011;10250;50.756;6.172;2022-12-07T06:35:22;16.03;;;4.87;;
20181;SDS011;10250;50.756;6.172;2022-12-07T06:37:23;16.43;;;4.37;;
20181;SDS011;10250;50.756;6.172;2022-12-07T06:39:25;17.57;;;5.30;;
20181;SDS011;10250;50.756;6.172;2022-12-07T06:41:26;16.83;;;4.67;;
20181;SDS011;10250;50.756;6.172;2022-12-07T06:43:27;15.33;;;4.23;;
20181;SDS011;10250;50.756;6.172;2022-12-07T06:45:28;15.33;;;4.50;;
20181;SDS011;10250;50.756;6.172;2022-12-07T06:47:29;14.57;;;4.03;;
20181;SDS011;10250;50.756;6.172;2022-12-07T06:49:30;18.37;;;4.40;;
20181;SDS011;10250;50.756;6.172;2022-12-07T06:51:31;17.13;;;4.60;;
20181;SDS011;10250;50.756;6.172;2022-12-07T06:53:32;13.70;;;4.13;;
20181;SDS011;10250;50.756;6.172;2022-12-07T06:55:33;13.70;;;4.03;;
20181;SDS011;10250;50.756;6.172;2022-12-07T06:57:34;17.20;;;5.37;;
20181;SDS011;10250;50.756;6.172;2022-12-07T06:59:35;15.40;;;4.77;;
20181;SDS011;10250;50.756;6.172;2022-12-07T07:01:36;14.40;;;4.20;;
20181;SDS011;10250;50.756;6.172;2022-12-07T07:03:37;18.50;;;5.00;;
20181;SDS011;10250;50.756;6.172;2022-12-07T07:05:38;12.80;;;3.67;;
20181;SDS011;10250;50.756;6.172;2022-12-07T07:07:39;12.13;;;3.13;;
20181;SDS011;10250;50.756;6.172;2022-12-07T07:09:40;12.40;;;3.47;;
20181;SDS011;10250;50.756;6.172;2022-12-07T07:11:41;14.00;;;4.10;;
20181;SDS011;10250;50.756;6.172;2022-12-07T07:13:42;14.00;;;4.00;;
20181;SDS011;10250;50.756;6.172;2022-12-07T07:15:43;13.53;;;4.43;;
20181;SDS011;10250;50.756;6.172;2022-12-07T07:17:44;15.17;;;4.17;;
20181;SDS011;10250;50.756;6.172;2022-12-07T07:19:45;14.20;;;3.87;;
20181;SDS011;10250;50.756;6.172;2022-12-07T07:21:46;13.30;;;4.23;;
20181;SDS011;10250;50.756;6.172;2022-12-07T07:23:47;12.57;;;3.80;;
20181;SDS011;10250;50.756;6.172;2022-12-07T07:25:48;15.03;;;4.13;;
20181;SDS011;10250;50.756;6.172;2022-12-07T07:27:49;14.37;;;4.73;;
20181;SDS011;10250;50.756;6.172;2022-12-07T07:29:50;15.30;;;4.57;;
20181;SDS011;10250;50.756;6.172;2022-12-07T07:31:51;13.50;;;4.17;;
20181;SDS011;10250;50.756;6.172;2022-12-07T07:33:52;13.90;;;3.57;;
20181;SDS011;10250;50.756;6.172;2022-12-07T07:35:53;13.63;;;3.90;;
20181;SDS011;10250;50.756;6.172;2022-12-07T07:37:54;14.30;;;4.60;;
20181;SDS011;10250;50.756;6.172;2022-12-07T07:39:55;14.90;;;5.13;;
20181;SDS011;10250;50.756;6.172;2022-12-07T07:41:56;14.43;;;4.03;;
20181;SDS011;10250;50.756;6.172;2022-12-07T07:43:57;14.50;;;4.63;;
20181;SDS011;10250;50.756;6.172;2022-12-07T07:45:58;18.37;;;5.30;;
20181;SDS011;10250;50.756;6.172;2022-12-07T07:47:59;15.77;;;5.57;;
20181;SDS011;10250;50.756;6.172;2022-12-07T07:50:00;16.23;;;5.20;;
20181;SDS011;10250;50.756;6.172;2022-12-07T07:52:01;14.60;;;4.73;;
20181;SDS011;10250;50.756;6.172;2022-12-07T07:54:03;16.80;;;4.80;;
20181;SDS011;10250;50.756;6.172;2022-12-07T07:56:04;15.70;;;4.70;;
20181;SDS011;10250;50.756;6.172;2022-12-07T07:58:05;13.77;;;4.33;;
20181;SDS011;10250;50.756;6.172;2022-12-07T08:00:07;13.90;;;4.07;;
20181;SDS011;10250;50.756;6.172;2022-12-07T08:02:12;13.70;;;3.73;;
20181;SDS011;10250;50.756;6.172;2022-12-07T08:04:14;14.90;;;4.13;;
20181;SDS011;10250;50.756;6.172;2022-12-07T08:06:16;14.43;;;4.40;;
20181;SDS011;10250;50.756;6.172;2022-12-07T08:08:16;15.13;;;5.10;;
20181;SDS011;10250;50.756;6.172;2022-12-07T08:10:17;14.93;;;4.33;;
20181;SDS011;10250;50.756;6.172;2022-12-07T08:12:18;16.40;;;4.60;;
20181;SDS011;10250;50.756;6.172;2022-12-07T08:14:19;12.80;;;3.40;;
20181;SDS011;10250;50.756;6.172;2022-12-07T08:16:20;13.13;;;3.43;;
20181;SDS011;10250;50.756;6.172;2022-12-07T08:18:21;15.10;;;4.13;;
20181;SDS011;10250;50.756;6.172;2022-12-07T08:20:22;13.10;;;3.73;;
20181;SDS011;10250;50.756;6.172;2022-12-07T08:22:23;15.03;;;4.17;;
20181;SDS011;10250;50.756;6.172;2022-12-07T08:24:24;13.03;;;4.17;;
20181;SDS011;10250;50.756;6.172;2022-12-07T08:26:25;13.70;;;4.30;;
20181;SDS011;10250;50.756;6.172;2022-12-07T08:28:27;12.90;;;3.93;;
20181;SDS011;10250;50.756;6.172;2022-12-07T08:30:28;15.90;;;4.57;;
20181;SDS011;10250;50.756;6.172;2022-12-07T08:32:29;13.10;;;3.63;;
20181;SDS011;10250;50.756;6.172;2022-12-07T08:34:30;13.50;;;4.37;;
20181;SDS011;10250;50.756;6.172;2022-12-07T08:36:31;13.70;;;3.77;;
20181;SDS011;10250;50.756;6.172;2022-12-07T08:38:35;15.17;;;4.73;;
20181;SDS011;10250;50.756;6.172;2022-12-07T08:40:36;13.83;;;3.87;;
20181;SDS011;10250;50.756;6.172;2022-12-07T08:42:37;13.97;;;3.37;;
20181;SDS011;10250;50.756;6.172;2022-12-07T08:44:40;14.97;;;3.70;;
20181;SDS011;10250;50.756;6.172;2022-12-07T08:46:48;13.57;;;3.70;;
20181;SDS011;10250;50.756;6.172;2022-12-07T08:48:53;13.90;;;4.00;;
20181;SDS011;10250;50.756;6.172;2022-12-07T08:50:55;13.20;;;3.83;;
20181;SDS011;10250;50.756;6.172;2022-12-07T08:52:59;12.10;;;3.37;;
20181;SDS011;10250;50.756;6.172;2022-12-07T08:55:02;11.70;;;3.23;;
20181;SDS011;10250;50.756;6.172;2022-12-07T08:57:04;13.53;;;4.00;;
20181;SDS011;10250;50.756;6.172;2022-12-07T08:59:06;11.40;;;3.40;;
20181;SDS011;10250;50.756;6.172;2022-12-07T09:01:07;11.73;;;3.40;;
20181;SDS011;10250;50.756;6.172;2022-12-07T09:03:08;13.07;;;3.63;;
20181;SDS011;10250;50.756;6.172;2022-12-07T09:05:09;16.73;;;5.00;;
20181;SDS011;10250;50.756;6.172;2022-12-07T09:07:10;16.70;;;4.27;;
20181;SDS011;10250;50.756;6.172;2022-12-07T09:09:11;14.43;;;3.73;;
20181;SDS011;10250;50.756;6.172;2022-12-07T09:11:13;14.50;;;4.60;;
20181;SDS011;10250;50.756;6.172;2022-12-07T09:13:14;13.10;;;3.83;;
20181;SDS011;10250;50.756;6.172;2022-12-07T09:15:15;14.00;;;3.77;;
20181;SDS011;10250;50.756;6.172;2022-12-07T09:17:16;14.80;;;4.10;;
20181;SDS011;10250;50.756;6.172;2022-12-07T09:19:17;13.87;;;4.43;;
20181;SDS011;10250;50.756;6.172;2022-12-07T09:21:18;14.10;;;4.07;;
20181;SDS011;10250;50.756;6.172;2022-12-07T09:23:19;16.60;;;4.27;;
20181;SDS011;10250;50.756;6.172;2022-12-07T09:25:20;14.07;;;3.77;;
20181;SDS011;10250;50.756;6.172;2022-12-07T09:27:21;15.80;;;4.33;;
20181;SDS011;10250;50.756;6.172;2022-12-07T09:29:22;13.33;;;3.77;;
20181;SDS011;10250;50.756;6.172;2022-12-07T09:31:23;14.40;;;4.43;;
20181;SDS011;10250;50.756;6.172;2022-12-07T09:33:24;16.70;;;4.33;;
20181;SDS011;10250;50.756;6.172;2022-12-07T09:35:26;16.70;;;4.57;;
20181;SDS011;10250;50.756;6.172;2022-12-07T09:37:27;11.90;;;3.30;;
20181;SDS011;10250;50.756;6.172;2022-12-07T09:39:28;16.33;;;4.57;;
20181;SDS011;10250;50.756;6.172;2022-12-07T09:41:29;14.47;;;4.23;;
20181;SDS011;10250;50.756;6.172;2022-12-07T09:43:31;11.87;;;3.40;;
20181;SDS011;10250;50.756;6.172;2022-12-07T09:45:34;12.90;;;4.27;;
20181;SDS011;10250;50.756;6.172;2022-12-07T09:47:42;17.80;;;4.70;;
20181;SDS011;10250;50.756;6.172;2022-12-07T09:49:43;15.83;;;4.47;;
20181;SDS011;10250;50.756;6.172;2022-12-07T09:51:44;17.57;;;4.50;;
20181;SDS011;10250;50.756;6.172;2022-12-07T09:53:48;13.83;;;3.90;;
20181;SDS011;10250;50.756;6.172;2022-12-07T09:55:49;17.30;;;4.57;;
20181;SDS011;10250;50.756;6.172;2022-12-07T09:57:51;12.63;;;3.73;;
20181;SDS011;10250;50.756;6.172;2022-12-07T09:59:52;12.43;;;3.63;;
20181;SDS011;10250;50.756;6.172;2022-12-07T10:01:54;14.57;;;4.23;;
20181;SDS011;10250;50.756;6.172;2022-12-07T10:04:00;13.73;;;4.00;;
20181;SDS011;10250;50.756;6.172;2022-12-07T10:06:02;13.03;;;3.77;;
20181;SDS011;10250;50.756;6.172;2022-12-07T10:08:07;17.87;;;4.70;;
20181;SDS011;10250;50.756;6.172;2022-12-07T10:10:16;17.47;;;5.07;;
20181;SDS011;10250;50.756;6.172;2022-12-07T10:12:18;15.67;;;4.90;;
20181;SDS011;10250;50.756;6.172;2022-12-07T10:14:19;16.00;;;5.20;;
20181;SDS011;10250;50.756;6.172;2022-12-07T10:18:26;13.83;;;4.33;;
20181;SDS011;10250;50.756;6.172;2022-12-07T10:20:27;16.03;;;3.83;;
20181;SDS011;10250;50.756;6.172;2022-12-07T10:22:28;14.17;;;4.50;;
20181;SDS011;10250;50.756;6.172;2022-12-07T10:24:29;12.30;;;4.20;;
20181;SDS011;10250;50.756;6.172;2022-12-07T10:26:34;14.03;;;4.33;;
20181;SDS011;10250;50.756;6.172;2022-12-07T10:28:36;13.87;;;4.67;;
20181;SDS011;10250;50.756;6.172;2022-12-07T10:32:50;17.77;;;4.83;;
20181;SDS011;10250;50.756;6.172;2022-12-07T10:34:51;16.10;;;4.50;;
20181;SDS011;10250;50.756;6.172;2022-12-07T10:36:53;13.20;;;4.43;;
20181;SDS011;10250;50.756;6.172;2022-12-07T10:39:01;14.90;;;4.70;;
20181;SDS011;10250;50.756;6.172;2022-12-07T10:41:04;17.10;;;5.73;;
20181;SDS011;10250;50.756;6.172;2022-12-07T10:51:49;18.27;;;5.27;;
20181;SDS011;10250;50.756;6.172;2022-12-07T11:00:23;14.10;;;4.13;;
20181;SDS011;10250;50.756;6.172;2022-12-07T11:10:48;15.07;;;4.07;;
20181;SDS011;10250;50.756;6.172;2022-12-07T11:21:58;14.70;;;4.20;;
20181;SDS011;10250;50.756;6.172;2022-12-07T11:30:22;16.47;;;5.03;;
20181;SDS011;10250;50.756;6.172;2022-12-07T11:36:48;12.33;;;3.80;;
20181;SDS011;10250;50.756;6.172;2022-12-07T11:38:55;12.03;;;3.33;;
20181;SDS011;10250;50.756;6.172;2022-12-07T11:41:01;17.57;;;3.70;;
20181;SDS011;10250;50.756;6.172;2022-12-07T11:45:19;16.27;;;4.00;;
20181;SDS011;10250;50.756;6.172;2022-12-07T11:47:25;15.80;;;4.23;;
20181;SDS011;10250;50.756;6.172;2022-12-07T11:49:40;13.37;;;3.90;;
20181;SDS011;10250;50.756;6.172;2022-12-07T11:51:41;13.73;;;3.67;;
20181;SDS011;10250;50.756;6.172;2022-12-07T11:53:45;11.90;;;3.40;;
20181;SDS011;10250;50.756;6.172;2022-12-07T11:56:07;11.80;;;3.27;;
20181;SDS011;10250;50.756;6.172;2022-12-07T12:00:22;13.13;;;3.73;;
20181;SDS011;10250;50.756;6.172;2022-12-07T12:02:24;15.63;;;4.33;;
20181;SDS011;10250;50.756;6.172;2022-12-07T12:04:48;12.97;;;3.40;;
20181;SDS011;10250;50.756;6.172;2022-12-07T12:06:50;11.97;;;3.20;;
20181;SDS011;10250;50.756;6.172;2022-12-07T12:08:58;12.63;;;3.30;;
20181;SDS011;10250;50.756;6.172;2022-12-07T12:15:40;14.40;;;4.00;;
20181;SDS011;10250;50.756;6.172;2022-12-07T12:22:00;11.80;;;3.50;;
20181;SDS011;10250;50.756;6.172;2022-12-07T12:24:10;11.00;;;3.03;;
20181;SDS011;10250;50.756;6.172;2022-12-07T12:26:18;13.17;;;3.83;;
20181;SDS011;10250;50.756;6.172;2022-12-07T12:30:39;14.43;;;4.10;;
20181;SDS011;10250;50.756;6.172;2022-12-07T12:32:43;17.60;;;4.27;;
20181;SDS011;10250;50.756;6.172;2022-12-07T12:36:49;12.53;;;3.63;;
20181;SDS011;10250;50.756;6.172;2022-12-07T12:40:51;12.13;;;3.43;;
20181;SDS011;10250;50.756;6.172;2022-12-07T12:42:52;14.17;;;4.17;;
20181;SDS011;10250;50.756;6.172;2022-12-07T12:45:04;16.73;;;4.90;;
20181;SDS011;10250;50.756;6.172;2022-12-07T12:47:38;15.13;;;4.23;;
20181;SDS011;10250;50.756;6.172;2022-12-07T12:49:33;14.37;;;3.83;;
20181;SDS011;10250;50.756;6.172;2022-12-07T12:53:35;13.40;;;3.90;;
20181;SDS011;10250;50.756;6.172;2022-12-07T12:57:43;12.07;;;3.37;;
20181;SDS011;10250;50.756;6.172;2022-12-07T13:02:34;13.90;;;3.90;;
20181;SDS011;10250;50.756;6.172;2022-12-07T13:04:30;12.23;;;3.50;;
20181;SDS011;10250;50.756;6.172;2022-12-07T13:06:35;10.87;;;3.20;;
20181;SDS011;10250;50.756;6.172;2022-12-07T13:08:39;13.23;;;4.33;;
20181;SDS011;10250;50.756;6.172;2022-12-07T13:10:41;11.67;;;3.30;;
20181;SDS011;10250;50.756;6.172;2022-12-07T13:12:43;13.73;;;3.20;;
20181;SDS011;10250;50.756;6.172;2022-12-07T13:14:59;14.10;;;4.03;;
20181;SDS011;10250;50.756;6.172;2022-12-07T13:17:00;13.93;;;3.63;;
20181;SDS011;10250;50.756;6.172;2022-12-07T13:19:01;11.17;;;3.13;;
20181;SDS011;10250;50.756;6.172;2022-12-07T13:23:06;11.27;;;3.23;;
20181;SDS011;10250;50.756;6.172;2022-12-07T13:25:11;12.40;;;3.33;;
20181;SDS011;10250;50.756;6.172;2022-12-07T13:27:18;12.37;;;3.50;;
20181;SDS011;10250;50.756;6.172;2022-12-07T13:29:19;12.23;;;3.30;;
20181;SDS011;10250;50.756;6.172;2022-12-07T13:33:22;10.67;;;3.47;;
20181;SDS011;10250;50.756;6.172;2022-12-07T13:35:41;11.77;;;3.43;;
20181;SDS011;10250;50.756;6.172;2022-12-07T13:37:42;10.80;;;3.13;;
20181;SDS011;10250;50.756;6.172;2022-12-07T13:39:47;12.33;;;3.63;;
20181;SDS011;10250;50.756;6.172;2022-12-07T13:41:49;13.37;;;3.20;;
20181;SDS011;10250;50.756;6.172;2022-12-07T13:45:55;10.33;;;3.07;;
20181;SDS011;10250;50.756;6.172;2022-12-07T13:47:57;12.33;;;3.60;;
20181;SDS011;10250;50.756;6.172;2022-12-07T13:49:59;14.60;;;3.33;;
20181;SDS011;10250;50.756;6.172;2022-12-07T13:52:13;14.00;;;4.03;;
20181;SDS011;10250;50.756;6.172;2022-12-07T13:54:15;16.30;;;3.87;;
20181;SDS011;10250;50.756;6.172;2022-12-07T13:56:16;14.40;;;4.13;;